sensor_id;sensor_type;location;lat;lon;timestamp;temperature;humidity
31129;DHT22;17777;48.770;8.944;2024-01-06T00:01:51;10.80;55.70
31129;DHT22;17777;48.770;8.944;2024-01-06T00:04:17;10.90;55.70
31129;DHT22;17777;48.770;8.944;2024-01-06T00:06:42;10.90;55.70
31129;DHT22;17777;48.770;8.944;2024-01-06T00:09:08;10.90;55.70
31129;DHT22;17777;48.770;8.944;2024-01-06T00:11:34;10.80;55.70
31129;DHT22;17777;48.770;8.944;2024-01-06T00:14:00;10.90;55.70
31129;DHT22;17777;48.770;8.944;2024-01-06T00:16:26;10.90;55.60
31129;DHT22;17777;48.770;8.944;2024-01-06T00:18:51;10.90;55.60
31129;DHT22;17777;48.770;8.944;2024-01-06T00:21:17;10.80;55.60
31129;DHT22;17777;48.770;8.944;2024-01-06T00:23:43;10.80;55.60
31129;DHT22;17777;48.770;8.944;2024-01-06T00:26:10;10.80;55.70
31129;DHT22;17777;48.770;8.944;2024-01-06T00:28:37;10.80;55.70
31129;DHT22;17777;48.770;8.944;2024-01-06T00:31:05;10.80;55.70
31129;DHT22;17777;48.770;8.944;2024-01-06T00:33:31;10.80;55.70
31129;DHT22;17777;48.770;8.944;2024-01-06T00:35:57;10.80;55.60
31129;DHT22;17777;48.770;8.944;2024-01-06T00:38:23;10.80;55.60
31129;DHT22;17777;48.770;8.944;2024-01-06T00:40:48;10.80;55.50
31129;DHT22;17777;48.770;8.944;2024-01-06T00:43:14;10.70;55.50
31129;DHT22;17777;48.770;8.944;2024-01-06T00:45:40;10.70;55.50
31129;DHT22;17777;48.770;8.944;2024-01-06T00:48:06;10.70;55.50
31129;DHT22;17777;48.770;8.944;2024-01-06T00:50:32;10.60;55.50
31129;DHT22;17777;48.770;8.944;2024-01-06T00:52:58;10.60;55.50
31129;DHT22;17777;48.770;8.944;2024-01-06T00:55:23;10.60;55.60
31129;DHT22;17777;48.770;8.944;2024-01-06T00:57:50;10.50;55.60
31129;DHT22;17777;48.770;8.944;2024-01-06T01:00:16;10.50;55.80
31129;DHT22;17777;48.770;8.944;2024-01-06T01:02:42;10.50;55.90
31129;DHT22;17777;48.770;8.944;2024-01-06T01:05:08;10.50;55.90
31129;DHT22;17777;48.770;8.944;2024-01-06T01:07:34;10.50;55.90
31129;DHT22;17777;48.770;8.944;2024-01-06T01:10:00;10.50;56.00
31129;DHT22;17777;48.770;8.944;2024-01-06T01:12:26;10.50;56.00
31129;DHT22;17777;48.770;8.944;2024-01-06T01:14:52;10.50;56.00
31129;DHT22;17777;48.770;8.944;2024-01-06T01:17:18;10.60;56.10
31129;DHT22;17777;48.770;8.944;2024-01-06T01:19:45;10.60;56.10
31129;DHT22;17777;48.770;8.944;2024-01-06T01:22:11;10.60;56.00
31129;DHT22;17777;48.770;8.944;2024-01-06T01:24:37;10.60;56.00
31129;DHT22;17777;48.770;8.944;2024-01-06T01:27:03;10.60;56.00
31129;DHT22;17777;48.770;8.944;2024-01-06T01:29:29;10.60;55.90
31129;DHT22;17777;48.770;8.944;2024-01-06T01:31:55;10.60;55.90
31129;DHT22;17777;48.770;8.944;2024-01-06T01:34:20;10.60;55.90
31129;DHT22;17777;48.770;8.944;2024-01-06T01:36:46;10.60;55.90
31129;DHT22;17777;48.770;8.944;2024-01-06T01:39:13;10.60;56.00
31129;DHT22;17777;48.770;8.944;2024-01-06T01:41:40;10.70;56.00
31129;DHT22;17777;48.770;8.944;2024-01-06T01:44:06;10.70;56.00
31129;DHT22;17777;48.770;8.944;2024-01-06T01:46:32;10.70;56.00
31129;DHT22;17777;48.770;8.944;2024-01-06T01:49:00;10.70;55.90
31129;DHT22;17777;48.770;8.944;2024-01-06T01:51:29;10.70;55.90
31129;DHT22;17777;48.770;8.944;2024-01-06T01:53:57;10.70;55.90
31129;DHT22;17777;48.770;8.944;2024-01-06T01:56:24;10.70;55.80
31129;DHT22;17777;48.770;8.944;2024-01-06T01:58:50;10.70;55.90
31129;DHT22;17777;48.770;8.944;2024-01-06T02:01:17;10.60;55.90
31129;DHT22;17777;48.770;8.944;2024-01-06T02:03:43;10.60;55.80
31129;DHT22;17777;48.770;8.944;2024-01-06T02:06:09;10.50;55.80
31129;DHT22;17777;48.770;8.944;2024-01-06T02:08:36;10.50;55.90
31129;DHT22;17777;48.770;8.944;2024-01-06T02:11:01;10.50;55.90
31129;DHT22;17777;48.770;8.944;2024-01-06T02:13:35;10.50;55.90
31129;DHT22;17777;48.770;8.944;2024-01-06T02:16:05;10.40;55.90
31129;DHT22;17777;48.770;8.944;2024-01-06T02:18:32;10.40;56.00
31129;DHT22;17777;48.770;8.944;2024-01-06T02:21:00;10.40;56.00
31129;DHT22;17777;48.770;8.944;2024-01-06T02:23:27;10.30;56.10
31129;DHT22;17777;48.770;8.944;2024-01-06T02:25:54;10.30;56.10
31129;DHT22;17777;48.770;8.944;2024-01-06T02:28:20;10.30;56.20
31129;DHT22;17777;48.770;8.944;2024-01-06T02:30:46;10.30;56.30
31129;DHT22;17777;48.770;8.944;2024-01-06T02:33:12;10.30;56.30
31129;DHT22;17777;48.770;8.944;2024-01-06T02:35:38;10.40;56.30
31129;DHT22;17777;48.770;8.944;2024-01-06T02:38:06;10.40;56.30
31129;DHT22;17777;48.770;8.944;2024-01-06T02:40:32;10.40;56.20
31129;DHT22;17777;48.770;8.944;2024-01-06T02:42:59;10.50;56.20
31129;DHT22;17777;48.770;8.944;2024-01-06T02:45:25;10.50;56.20
31129;DHT22;17777;48.770;8.944;2024-01-06T02:47:50;10.50;56.20
31129;DHT22;17777;48.770;8.944;2024-01-06T02:50:16;10.50;56.10
31129;DHT22;17777;48.770;8.944;2024-01-06T02:52:43;10.50;55.90
31129;DHT22;17777;48.770;8.944;2024-01-06T02:55:10;10.50;56.00
31129;DHT22;17777;48.770;8.944;2024-01-06T02:57:37;10.40;56.00
31129;DHT22;17777;48.770;8.944;2024-01-06T03:00:04;10.40;56.10
31129;DHT22;17777;48.770;8.944;2024-01-06T03:02:30;10.40;56.10
31129;DHT22;17777;48.770;8.944;2024-01-06T03:04:55;10.50;56.20
31129;DHT22;17777;48.770;8.944;2024-01-06T03:07:21;10.50;56.10
31129;DHT22;17777;48.770;8.944;2024-01-06T03:09:47;10.50;56.70
31129;DHT22;17777;48.770;8.944;2024-01-06T03:12:13;10.50;56.00
31129;DHT22;17777;48.770;8.944;2024-01-06T03:14:39;10.50;55.90
31129;DHT22;17777;48.770;8.944;2024-01-06T03:17:05;10.50;55.90
31129;DHT22;17777;48.770;8.944;2024-01-06T03:19:31;10.50;55.90
31129;DHT22;17777;48.770;8.944;2024-01-06T03:21:57;10.50;56.00
31129;DHT22;17777;48.770;8.944;2024-01-06T03:24:24;10.50;56.00
31129;DHT22;17777;48.770;8.944;2024-01-06T03:26:51;10.50;56.10
31129;DHT22;17777;48.770;8.944;2024-01-06T03:29:17;10.50;56.10
31129;DHT22;17777;48.770;8.944;2024-01-06T03:31:46;10.50;56.10
31129;DHT22;17777;48.770;8.944;2024-01-06T03:34:12;10.60;56.10
31129;DHT22;17777;48.770;8.944;2024-01-06T03:36:39;10.60;56.10
31129;DHT22;17777;48.770;8.944;2024-01-06T03:39:06;10.60;56.10
31129;DHT22;17777;48.770;8.944;2024-01-06T03:41:32;10.60;56.00
31129;DHT22;17777;48.770;8.944;2024-01-06T03:43:58;10.60;56.00
31129;DHT22;17777;48.770;8.944;2024-01-06T03:46:24;10.60;56.00
31129;DHT22;17777;48.770;8.944;2024-01-06T03:48:50;10.60;56.00
31129;DHT22;17777;48.770;8.944;2024-01-06T03:51:15;10.60;55.90
31129;DHT22;17777;48.770;8.944;2024-01-06T03:53:41;10.60;55.90
31129;DHT22;17777;48.770;8.944;2024-01-06T03:56:07;10.60;55.90
31129;DHT22;17777;48.770;8.944;2024-01-06T03:58:33;10.70;55.90
31129;DHT22;17777;48.770;8.944;2024-01-06T04:00:59;10.70;55.80
31129;DHT22;17777;48.770;8.944;2024-01-06T04:03:25;10.70;55.80
31129;DHT22;17777;48.770;8.944;2024-01-06T04:05:51;10.70;55.80
31129;DHT22;17777;48.770;8.944;2024-01-06T04:08:18;10.70;55.70
31129;DHT22;17777;48.770;8.944;2024-01-06T04:10:44;10.70;55.70
31129;DHT22;17777;48.770;8.944;2024-01-06T04:13:11;10.70;55.80
31129;DHT22;17777;48.770;8.944;2024-01-06T04:15:37;10.70;56.30
31129;DHT22;17777;48.770;8.944;2024-01-06T04:18:04;10.70;55.60
31129;DHT22;17777;48.770;8.944;2024-01-06T04:20:31;10.70;55.60
31129;DHT22;17777;48.770;8.944;2024-01-06T04:22:58;10.70;55.50
31129;DHT22;17777;48.770;8.944;2024-01-06T04:25:24;10.70;55.50
31129;DHT22;17777;48.770;8.944;2024-01-06T04:27:50;10.70;55.60
31129;DHT22;17777;48.770;8.944;2024-01-06T04:30:17;10.60;55.50
31129;DHT22;17777;48.770;8.944;2024-01-06T04:32:43;10.60;55.50
31129;DHT22;17777;48.770;8.944;2024-01-06T04:35:09;10.60;55.50
31129;DHT22;17777;48.770;8.944;2024-01-06T04:37:35;10.50;55.50
31129;DHT22;17777;48.770;8.944;2024-01-06T04:40:01;10.50;55.50
31129;DHT22;17777;48.770;8.944;2024-01-06T04:42:28;10.50;55.60
31129;DHT22;17777;48.770;8.944;2024-01-06T04:44:54;10.50;55.60
31129;DHT22;17777;48.770;8.944;2024-01-06T04:47:19;10.40;55.60
31129;DHT22;17777;48.770;8.944;2024-01-06T04:49:45;10.40;55.70
31129;DHT22;17777;48.770;8.944;2024-01-06T04:52:11;10.40;55.70
31129;DHT22;17777;48.770;8.944;2024-01-06T04:54:37;10.40;55.80
31129;DHT22;17777;48.770;8.944;2024-01-06T04:57:04;10.40;55.80
31129;DHT22;17777;48.770;8.944;2024-01-06T04:59:30;10.50;55.80
31129;DHT22;17777;48.770;8.944;2024-01-06T05:01:57;10.50;55.70
31129;DHT22;17777;48.770;8.944;2024-01-06T05:04:24;10.50;55.80
31129;DHT22;17777;48.770;8.944;2024-01-06T05:06:51;10.50;55.80
31129;DHT22;17777;48.770;8.944;2024-01-06T05:09:17;10.50;55.70
31129;DHT22;17777;48.770;8.944;2024-01-06T05:11:44;10.60;55.70
31129;DHT22;17777;48.770;8.944;2024-01-06T05:14:10;10.60;55.60
31129;DHT22;17777;48.770;8.944;2024-01-06T05:16:36;10.60;55.60
31129;DHT22;17777;48.770;8.944;2024-01-06T05:19:02;10.60;55.50
31129;DHT22;17777;48.770;8.944;2024-01-06T05:21:28;10.60;55.60
31129;DHT22;17777;48.770;8.944;2024-01-06T05:23:55;10.60;55.60
31129;DHT22;17777;48.770;8.944;2024-01-06T05:26:20;10.70;55.60
31129;DHT22;17777;48.770;8.944;2024-01-06T05:28:46;10.60;55.60
31129;DHT22;17777;48.770;8.944;2024-01-06T05:31:12;10.60;55.60
31129;DHT22;17777;48.770;8.944;2024-01-06T05:33:38;10.70;55.60
31129;DHT22;17777;48.770;8.944;2024-01-06T05:36:04;10.70;55.60
31129;DHT22;17777;48.770;8.944;2024-01-06T05:38:30;10.70;55.60
31129;DHT22;17777;48.770;8.944;2024-01-06T05:40:56;10.70;55.50
31129;DHT22;17777;48.770;8.944;2024-01-06T05:43:21;10.70;55.50
31129;DHT22;17777;48.770;8.944;2024-01-06T05:45:47;10.80;55.60
31129;DHT22;17777;48.770;8.944;2024-01-06T05:48:13;10.80;55.60
31129;DHT22;17777;48.770;8.944;2024-01-06T05:50:39;10.80;55.50
31129;DHT22;17777;48.770;8.944;2024-01-06T05:53:06;10.80;55.40
31129;DHT22;17777;48.770;8.944;2024-01-06T05:55:32;10.80;55.40
31129;DHT22;17777;48.770;8.944;2024-01-06T05:57:58;10.80;56.10
31129;DHT22;17777;48.770;8.944;2024-01-06T06:00:24;10.90;55.50
31129;DHT22;17777;48.770;8.944;2024-01-06T06:02:50;10.90;55.50
31129;DHT22;17777;48.770;8.944;2024-01-06T06:05:16;10.90;55.30
31129;DHT22;17777;48.770;8.944;2024-01-06T06:07:42;10.90;55.40
31129;DHT22;17777;48.770;8.944;2024-01-06T06:10:10;10.90;55.30
31129;DHT22;17777;48.770;8.944;2024-01-06T06:12:36;10.90;55.30
31129;DHT22;17777;48.770;8.944;2024-01-06T06:15:03;10.80;55.30
31129;DHT22;17777;48.770;8.944;2024-01-06T06:17:30;10.80;55.30
31129;DHT22;17777;48.770;8.944;2024-01-06T06:19:57;10.80;55.40
31129;DHT22;17777;48.770;8.944;2024-01-06T06:22:24;10.80;55.40
31129;DHT22;17777;48.770;8.944;2024-01-06T06:24:52;10.80;55.40
31129;DHT22;17777;48.770;8.944;2024-01-06T06:27:18;10.90;55.50
31129;DHT22;17777;48.770;8.944;2024-01-06T06:29:44;10.80;55.50
31129;DHT22;17777;48.770;8.944;2024-01-06T06:32:09;10.90;55.50
31129;DHT22;17777;48.770;8.944;2024-01-06T06:34:35;10.90;56.20
31129;DHT22;17777;48.770;8.944;2024-01-06T06:37:01;10.90;55.50
31129;DHT22;17777;48.770;8.944;2024-01-06T06:39:27;10.90;55.40
31129;DHT22;17777;48.770;8.944;2024-01-06T06:41:52;10.90;55.40
31129;DHT22;17777;48.770;8.944;2024-01-06T06:44:18;10.90;55.40
31129;DHT22;17777;48.770;8.944;2024-01-06T06:46:44;10.90;55.30
31129;DHT22;17777;48.770;8.944;2024-01-06T06:49:10;10.90;55.30
31129;DHT22;17777;48.770;8.944;2024-01-06T06:51:35;10.80;55.30
31129;DHT22;17777;48.770;8.944;2024-01-06T06:54:01;10.80;55.30
31129;DHT22;17777;48.770;8.944;2024-01-06T06:56:27;10.80;55.30
31129;DHT22;17777;48.770;8.944;2024-01-06T06:58:53;10.80;55.30
31129;DHT22;17777;48.770;8.944;2024-01-06T07:01:21;10.80;55.40
31129;DHT22;17777;48.770;8.944;2024-01-06T07:03:46;10.70;55.30
31129;DHT22;17777;48.770;8.944;2024-01-06T07:06:13;10.80;55.40
31129;DHT22;17777;48.770;8.944;2024-01-06T07:08:39;10.80;55.40
31129;DHT22;17777;48.770;8.944;2024-01-06T07:11:09;10.80;55.30
31129;DHT22;17777;48.770;8.944;2024-01-06T07:13:37;10.80;55.30
31129;DHT22;17777;48.770;8.944;2024-01-06T07:16:03;10.80;55.30
31129;DHT22;17777;48.770;8.944;2024-01-06T07:18:28;10.80;55.20
31129;DHT22;17777;48.770;8.944;2024-01-06T07:20:54;10.70;55.20
31129;DHT22;17777;48.770;8.944;2024-01-06T07:23:20;10.70;55.20
31129;DHT22;17777;48.770;8.944;2024-01-06T07:25:45;10.70;55.30
31129;DHT22;17777;48.770;8.944;2024-01-06T07:28:11;10.80;55.30
31129;DHT22;17777;48.770;8.944;2024-01-06T07:30:37;10.80;55.30
31129;DHT22;17777;48.770;8.944;2024-01-06T07:33:03;10.80;55.80
31129;DHT22;17777;48.770;8.944;2024-01-06T07:35:29;10.80;55.10
31129;DHT22;17777;48.770;8.944;2024-01-06T07:37:55;10.80;55.10
31129;DHT22;17777;48.770;8.944;2024-01-06T07:40:20;10.80;55.00
31129;DHT22;17777;48.770;8.944;2024-01-06T07:42:49;10.80;55.00
31129;DHT22;17777;48.770;8.944;2024-01-06T07:45:15;10.80;55.00
31129;DHT22;17777;48.770;8.944;2024-01-06T07:47:41;10.80;55.00
31129;DHT22;17777;48.770;8.944;2024-01-06T07:50:07;10.80;55.10
31129;DHT22;17777;48.770;8.944;2024-01-06T07:52:34;10.80;55.20
31129;DHT22;17777;48.770;8.944;2024-01-06T07:54:59;10.80;55.10
31129;DHT22;17777;48.770;8.944;2024-01-06T07:57:25;10.90;55.00
31129;DHT22;17777;48.770;8.944;2024-01-06T07:59:51;10.90;55.00
31129;DHT22;17777;48.770;8.944;2024-01-06T08:02:17;10.80;54.90
31129;DHT22;17777;48.770;8.944;2024-01-06T08:04:42;10.80;54.90
31129;DHT22;17777;48.770;8.944;2024-01-06T08:07:08;10.80;54.90
31129;DHT22;17777;48.770;8.944;2024-01-06T08:09:34;10.90;54.90
31129;DHT22;17777;48.770;8.944;2024-01-06T08:12:00;10.90;54.90
31129;DHT22;17777;48.770;8.944;2024-01-06T08:14:25;10.90;54.90
31129;DHT22;17777;48.770;8.944;2024-01-06T08:16:51;10.90;54.90
31129;DHT22;17777;48.770;8.944;2024-01-06T08:19:17;10.90;54.90
31129;DHT22;17777;48.770;8.944;2024-01-06T08:21:42;10.90;54.90
31129;DHT22;17777;48.770;8.944;2024-01-06T08:24:09;11.00;54.90
31129;DHT22;17777;48.770;8.944;2024-01-06T08:26:34;11.00;54.90
31129;DHT22;17777;48.770;8.944;2024-01-06T08:29:00;11.00;54.90
31129;DHT22;17777;48.770;8.944;2024-01-06T08:31:26;11.00;54.80
31129;DHT22;17777;48.770;8.944;2024-01-06T08:33:52;11.00;54.90
31129;DHT22;17777;48.770;8.944;2024-01-06T08:36:17;11.00;55.00
31129;DHT22;17777;48.770;8.944;2024-01-06T08:38:43;11.00;54.90
31129;DHT22;17777;48.770;8.944;2024-01-06T08:41:09;11.00;54.80
31129;DHT22;17777;48.770;8.944;2024-01-06T08:43:35;11.00;54.70
31129;DHT22;17777;48.770;8.944;2024-01-06T08:46:01;11.00;54.70
31129;DHT22;17777;48.770;8.944;2024-01-06T08:48:27;11.00;54.70
31129;DHT22;17777;48.770;8.944;2024-01-06T08:50:53;11.00;54.70
31129;DHT22;17777;48.770;8.944;2024-01-06T08:53:19;11.00;54.70
31129;DHT22;17777;48.770;8.944;2024-01-06T08:55:45;11.10;54.90
31129;DHT22;17777;48.770;8.944;2024-01-06T08:58:11;11.10;55.00
31129;DHT22;17777;48.770;8.944;2024-01-06T09:00:37;11.00;54.90
31129;DHT22;17777;48.770;8.944;2024-01-06T09:03:02;11.10;54.80
31129;DHT22;17777;48.770;8.944;2024-01-06T09:05:28;11.10;54.80
31129;DHT22;17777;48.770;8.944;2024-01-06T09:07:54;11.10;54.80
31129;DHT22;17777;48.770;8.944;2024-01-06T09:10:20;11.10;54.70
31129;DHT22;17777;48.770;8.944;2024-01-06T09:12:46;11.10;54.70
31129;DHT22;17777;48.770;8.944;2024-01-06T09:15:11;11.10;54.50
31129;DHT22;17777;48.770;8.944;2024-01-06T09:17:37;11.10;54.40
31129;DHT22;17777;48.770;8.944;2024-01-06T09:20:03;11.00;54.30
31129;DHT22;17777;48.770;8.944;2024-01-06T09:22:29;11.00;54.40
31129;DHT22;17777;48.770;8.944;2024-01-06T09:24:55;11.00;54.50
31129;DHT22;17777;48.770;8.944;2024-01-06T09:27:21;11.00;54.50
31129;DHT22;17777;48.770;8.944;2024-01-06T09:29:47;11.00;54.60
31129;DHT22;17777;48.770;8.944;2024-01-06T09:32:13;11.00;54.50
31129;DHT22;17777;48.770;8.944;2024-01-06T09:34:39;11.00;54.50
31129;DHT22;17777;48.770;8.944;2024-01-06T09:37:05;10.90;54.50
31129;DHT22;17777;48.770;8.944;2024-01-06T09:39:30;10.90;54.60
31129;DHT22;17777;48.770;8.944;2024-01-06T09:41:57;10.90;54.70
31129;DHT22;17777;48.770;8.944;2024-01-06T09:44:23;10.90;54.70
31129;DHT22;17777;48.770;8.944;2024-01-06T09:46:50;11.00;54.80
31129;DHT22;17777;48.770;8.944;2024-01-06T09:49:22;11.00;54.70
31129;DHT22;17777;48.770;8.944;2024-01-06T09:51:49;11.00;54.60
31129;DHT22;17777;48.770;8.944;2024-01-06T09:54:23;11.00;54.70
31129;DHT22;17777;48.770;8.944;2024-01-06T09:56:51;11.00;54.70
31129;DHT22;17777;48.770;8.944;2024-01-06T09:59:18;11.00;54.60
31129;DHT22;17777;48.770;8.944;2024-01-06T10:01:45;11.00;54.60
31129;DHT22;17777;48.770;8.944;2024-01-06T10:04:11;11.00;54.80
31129;DHT22;17777;48.770;8.944;2024-01-06T10:06:36;10.90;54.80
31129;DHT22;17777;48.770;8.944;2024-01-06T10:09:03;10.90;54.80
31129;DHT22;17777;48.770;8.944;2024-01-06T10:11:31;10.90;54.90
31129;DHT22;17777;48.770;8.944;2024-01-06T10:13:56;10.90;55.00
31129;DHT22;17777;48.770;8.944;2024-01-06T10:16:22;10.90;54.90
31129;DHT22;17777;48.770;8.944;2024-01-06T10:18:48;11.00;54.90
31129;DHT22;17777;48.770;8.944;2024-01-06T10:21:14;10.90;54.80
31129;DHT22;17777;48.770;8.944;2024-01-06T10:23:43;10.90;54.80
31129;DHT22;17777;48.770;8.944;2024-01-06T10:26:12;10.90;54.90
31129;DHT22;17777;48.770;8.944;2024-01-06T10:28:39;10.80;54.90
31129;DHT22;17777;48.770;8.944;2024-01-06T10:31:07;10.80;55.00
31129;DHT22;17777;48.770;8.944;2024-01-06T10:33:34;10.70;55.00
31129;DHT22;17777;48.770;8.944;2024-01-06T10:36:00;10.70;55.00
31129;DHT22;17777;48.770;8.944;2024-01-06T10:38:26;10.70;55.00
31129;DHT22;17777;48.770;8.944;2024-01-06T10:41:11;10.70;55.10
31129;DHT22;17777;48.770;8.944;2024-01-06T10:43:38;10.70;55.20
31129;DHT22;17777;48.770;8.944;2024-01-06T10:46:07;10.70;55.20
31129;DHT22;17777;48.770;8.944;2024-01-06T10:48:37;10.70;55.30
31129;DHT22;17777;48.770;8.944;2024-01-06T10:51:04;10.70;55.40
31129;DHT22;17777;48.770;8.944;2024-01-06T10:53:33;10.70;55.50
31129;DHT22;17777;48.770;8.944;2024-01-06T10:56:01;10.70;55.40
31129;DHT22;17777;48.770;8.944;2024-01-06T10:58:28;10.70;55.50
31129;DHT22;17777;48.770;8.944;2024-01-06T11:00:56;10.70;55.50
31129;DHT22;17777;48.770;8.944;2024-01-06T11:03:22;10.70;55.50
31129;DHT22;17777;48.770;8.944;2024-01-06T11:05:50;10.80;55.60
31129;DHT22;17777;48.770;8.944;2024-01-06T11:08:17;10.80;55.60
31129;DHT22;17777;48.770;8.944;2024-01-06T11:10:44;10.80;55.60
31129;DHT22;17777;48.770;8.944;2024-01-06T11:13:12;10.80;55.50
31129;DHT22;17777;48.770;8.944;2024-01-06T11:15:42;10.80;55.50
31129;DHT22;17777;48.770;8.944;2024-01-06T11:18:37;10.80;55.50
31129;DHT22;17777;48.770;8.944;2024-01-06T11:21:22;10.70;55.60
31129;DHT22;17777;48.770;8.944;2024-01-06T11:24:19;10.70;55.60
31129;DHT22;17777;48.770;8.944;2024-01-06T11:26:51;10.70;55.60
31129;DHT22;17777;48.770;8.944;2024-01-06T11:29:21;10.70;55.50
31129;DHT22;17777;48.770;8.944;2024-01-06T11:32:18;10.70;55.60
31129;DHT22;17777;48.770;8.944;2024-01-06T11:34:52;10.70;55.80
31129;DHT22;17777;48.770;8.944;2024-01-06T11:37:34;10.70;55.70
31129;DHT22;17777;48.770;8.944;2024-01-06T11:43:06;10.70;55.90
31129;DHT22;17777;48.770;8.944;2024-01-06T11:45:40;10.70;55.90
31129;DHT22;17777;48.770;8.944;2024-01-06T11:48:08;10.70;55.90
31129;DHT22;17777;48.770;8.944;2024-01-06T11:50:38;10.70;55.90
31129;DHT22;17777;48.770;8.944;2024-01-06T11:53:05;10.70;55.90
31129;DHT22;17777;48.770;8.944;2024-01-06T11:55:33;10.80;56.00
31129;DHT22;17777;48.770;8.944;2024-01-06T11:58:00;10.80;56.10
31129;DHT22;17777;48.770;8.944;2024-01-06T12:00:34;10.80;56.00
31129;DHT22;17777;48.770;8.944;2024-01-06T12:03:02;10.80;56.70
31129;DHT22;17777;48.770;8.944;2024-01-06T12:05:28;10.80;56.00
31129;DHT22;17777;48.770;8.944;2024-01-06T12:07:59;10.90;56.00
31129;DHT22;17777;48.770;8.944;2024-01-06T12:10:26;10.90;56.00
31129;DHT22;17777;48.770;8.944;2024-01-06T12:15:26;10.90;56.10
31129;DHT22;17777;48.770;8.944;2024-01-06T12:17:53;10.90;56.00
31129;DHT22;17777;48.770;8.944;2024-01-06T12:20:19;10.90;55.90
31129;DHT22;17777;48.770;8.944;2024-01-06T12:22:45;10.90;55.90
31129;DHT22;17777;48.770;8.944;2024-01-06T12:25:10;10.90;56.00
31129;DHT22;17777;48.770;8.944;2024-01-06T12:27:40;10.80;55.90
31129;DHT22;17777;48.770;8.944;2024-01-06T12:30:15;10.90;56.00
31129;DHT22;17777;48.770;8.944;2024-01-06T12:32:49;10.90;56.10
31129;DHT22;17777;48.770;8.944;2024-01-06T12:35:16;10.90;56.20
31129;DHT22;17777;48.770;8.944;2024-01-06T12:37:42;10.90;56.10
31129;DHT22;17777;48.770;8.944;2024-01-06T12:40:09;10.90;56.10
31129;DHT22;17777;48.770;8.944;2024-01-06T12:42:35;10.90;56.10
31129;DHT22;17777;48.770;8.944;2024-01-06T12:45:02;10.90;56.10
31129;DHT22;17777;48.770;8.944;2024-01-06T12:47:28;10.90;56.10
31129;DHT22;17777;48.770;8.944;2024-01-06T12:49:54;10.90;56.10
31129;DHT22;17777;48.770;8.944;2024-01-06T12:52:20;10.90;56.00
31129;DHT22;17777;48.770;8.944;2024-01-06T12:54:46;10.90;56.00
31129;DHT22;17777;48.770;8.944;2024-01-06T12:57:12;10.90;56.10
31129;DHT22;17777;48.770;8.944;2024-01-06T12:59:37;10.90;56.10
31129;DHT22;17777;48.770;8.944;2024-01-06T13:02:03;10.90;56.10
31129;DHT22;17777;48.770;8.944;2024-01-06T13:04:29;10.90;56.10
31129;DHT22;17777;48.770;8.944;2024-01-06T13:06:55;10.90;56.10
31129;DHT22;17777;48.770;8.944;2024-01-06T13:09:21;10.90;56.10
31129;DHT22;17777;48.770;8.944;2024-01-06T13:11:49;10.90;56.10
31129;DHT22;17777;48.770;8.944;2024-01-06T13:14:17;10.90;56.10
31129;DHT22;17777;48.770;8.944;2024-01-06T13:16:43;10.90;56.10
31129;DHT22;17777;48.770;8.944;2024-01-06T13:19:09;10.90;56.00
31129;DHT22;17777;48.770;8.944;2024-01-06T13:21:35;10.80;56.00
31129;DHT22;17777;48.770;8.944;2024-01-06T13:24:01;10.80;56.00
31129;DHT22;17777;48.770;8.944;2024-01-06T13:26:29;10.80;56.10
31129;DHT22;17777;48.770;8.944;2024-01-06T13:28:56;10.80;56.10
31129;DHT22;17777;48.770;8.944;2024-01-06T13:31:22;10.80;56.20
31129;DHT22;17777;48.770;8.944;2024-01-06T13:33:49;10.80;56.20
31129;DHT22;17777;48.770;8.944;2024-01-06T13:36:18;10.80;56.20
31129;DHT22;17777;48.770;8.944;2024-01-06T13:38:45;10.80;56.20
31129;DHT22;17777;48.770;8.944;2024-01-06T13:41:11;10.80;56.30
31129;DHT22;17777;48.770;8.944;2024-01-06T13:43:37;10.90;56.30
31129;DHT22;17777;48.770;8.944;2024-01-06T13:46:03;10.90;56.20
31129;DHT22;17777;48.770;8.944;2024-01-06T13:48:29;10.90;56.10
31129;DHT22;17777;48.770;8.944;2024-01-06T13:50:55;10.90;56.20
31129;DHT22;17777;48.770;8.944;2024-01-06T13:53:22;10.90;56.20
31129;DHT22;17777;48.770;8.944;2024-01-06T13:55:48;10.90;56.20
31129;DHT22;17777;48.770;8.944;2024-01-06T13:58:14;10.90;56.10
31129;DHT22;17777;48.770;8.944;2024-01-06T14:00:40;10.90;56.10
31129;DHT22;17777;48.770;8.944;2024-01-06T14:03:06;10.90;56.10
31129;DHT22;17777;48.770;8.944;2024-01-06T14:05:33;10.90;56.00
31129;DHT22;17777;48.770;8.944;2024-01-06T14:08:00;10.90;56.00
31129;DHT22;17777;48.770;8.944;2024-01-06T14:10:26;10.80;56.10
31129;DHT22;17777;48.770;8.944;2024-01-06T14:12:53;10.80;56.20
31129;DHT22;17777;48.770;8.944;2024-01-06T14:15:19;10.80;56.10
31129;DHT22;17777;48.770;8.944;2024-01-06T14:17:45;10.80;56.10
31129;DHT22;17777;48.770;8.944;2024-01-06T14:20:18;10.80;56.20
31129;DHT22;17777;48.770;8.944;2024-01-06T14:22:45;10.80;56.30
31129;DHT22;17777;48.770;8.944;2024-01-06T14:25:12;10.80;56.30
31129;DHT22;17777;48.770;8.944;2024-01-06T14:27:38;10.80;56.40
31129;DHT22;17777;48.770;8.944;2024-01-06T14:30:05;10.80;56.40
31129;DHT22;17777;48.770;8.944;2024-01-06T14:32:35;10.80;56.40
31129;DHT22;17777;48.770;8.944;2024-01-06T14:35:05;10.80;56.40
31129;DHT22;17777;48.770;8.944;2024-01-06T14:37:32;10.80;56.40
31129;DHT22;17777;48.770;8.944;2024-01-06T14:39:58;10.80;56.40
31129;DHT22;17777;48.770;8.944;2024-01-06T14:42:30;10.80;56.30
31129;DHT22;17777;48.770;8.944;2024-01-06T14:44:56;10.80;56.40
31129;DHT22;17777;48.770;8.944;2024-01-06T14:47:21;10.90;56.40
31129;DHT22;17777;48.770;8.944;2024-01-06T14:49:49;10.80;56.30
31129;DHT22;17777;48.770;8.944;2024-01-06T14:52:15;10.80;56.40
31129;DHT22;17777;48.770;8.944;2024-01-06T14:54:40;10.80;56.40
31129;DHT22;17777;48.770;8.944;2024-01-06T14:57:06;10.80;56.40
31129;DHT22;17777;48.770;8.944;2024-01-06T14:59:33;10.80;56.50
31129;DHT22;17777;48.770;8.944;2024-01-06T15:02:02;10.80;56.40
31129;DHT22;17777;48.770;8.944;2024-01-06T15:04:29;10.80;56.50
31129;DHT22;17777;48.770;8.944;2024-01-06T15:06:55;10.80;56.50
31129;DHT22;17777;48.770;8.944;2024-01-06T15:09:20;10.70;56.50
31129;DHT22;17777;48.770;8.944;2024-01-06T15:11:47;10.70;56.60
31129;DHT22;17777;48.770;8.944;2024-01-06T15:14:13;10.70;56.60
31129;DHT22;17777;48.770;8.944;2024-01-06T15:16:39;10.70;56.80
31129;DHT22;17777;48.770;8.944;2024-01-06T15:19:05;10.70;56.90
31129;DHT22;17777;48.770;8.944;2024-01-06T15:21:33;10.70;56.90
31129;DHT22;17777;48.770;8.944;2024-01-06T15:24:00;10.70;57.00
31129;DHT22;17777;48.770;8.944;2024-01-06T15:26:26;10.70;57.00
31129;DHT22;17777;48.770;8.944;2024-01-06T15:28:52;10.70;57.00
31129;DHT22;17777;48.770;8.944;2024-01-06T15:31:19;10.80;57.00
31129;DHT22;17777;48.770;8.944;2024-01-06T15:33:44;10.80;56.90